TLSO2: Arkansas River, Tulsa, OK

                                SHEF ID:       TLSO2     Arkansas River at Tulsa, OK
STATION TYPE: Stream Gauge
Regulating: Stage = 15.00, Flow = 96489

PRECIP STAGE STAGE(2) RIV-FLOW WTR-TEMP DIS-OXY BAT-LOAD
in ft ft cfs F mg/l volt
Ccp-Rev Ccp-Rev Ccp-Rev Ccp-Rev Ccp-Rev Ccp-Rev Ccp-Rev
(America/Chicago)
03/24 00:00 0.00 4.21 ---- 3411 60.60 12.95 ----
03/24 01:00 0.00 4.34 ---- 3951 60.15 12.83 ----
03/24 02:00 0.00 4.59 ---- 5118 59.63 12.10 ----
03/24 03:00 0.00 4.50 ---- 4678 58.96 12.05 ----
03/24 04:00 0.00 4.47 ---- 4536 58.26 11.98 ----
03/24 05:00 0.00 4.53 ---- 4822 58.21 11.22 ----
03/24 06:00 0.00 4.48 ---- 4583 58.19 11.04 ----
03/24 07:00 0.00 4.46 ---- 4490 57.61 10.24 ----
03/24 08:00 0.00 4.45 ---- 4443 57.20 9.93 ----
03/24 09:00 0.00 4.46 ---- 4490 56.75 9.85 ----
03/24 10:00 0.00 4.46 ---- 4490 56.55 9.95 ----
03/24 11:00 0.00 4.48 ---- 4583 57.04 10.37 ----
03/24 12:00 0.00 4.45 ---- 4443 57.13 11.00 ----
03/24 13:00 0.00 4.47 ---- 4536 58.05 11.58 ----
03/24 14:00 0.00 4.50 ---- 4678 59.25 12.48 ----
03/24 15:00 0.00 4.50 ---- 4678 60.53 13.31 ----
03/24 16:00 0.00 4.52 ---- 4774 60.73 13.37 ----
03/24 17:00 0.00 4.48 ---- 4583 61.03 13.69 ----
03/24 18:00 0.00 4.44 ---- 4397 61.41 14.21 ----
03/24 19:00 0.00 4.48 ---- 4583 61.45 14.26 ----
03/24 20:00 0.00 4.49 ---- 4631 61.52 13.88 ----
03/24 21:00 0.00 4.52 ---- 4774 61.16 13.36 ----
03/24 22:00 0.00 4.46 ---- 4490 61.36 13.33 ----
03/24 23:00 0.00 4.46 ---- 4490 61.12 12.86 ----
Data processed at Wed 25Mar2026 04:48 GMT

NOTICE: If you are parsing this page

Please convert to using our Data API. Starting early 2026 we will be migrating to: https://water.usace.army.mil with modern pages rendered in JavaScript. When this migration completes you will no longer be able to scrape this page! CWMSDataAPI (CDA)

Timeseries IDs (TSIDs)

TSIDs used from left to right in the data table
TULA.Precip-Inc.Total.1Hour.1Hour.Ccp-Rev
TULA.Stage.Inst.1Hour.0.Ccp-Rev
TULA.Stage-Alt.Inst.1Hour.0.Ccp-Rev
TULA.Flow.Inst.1Hour.0.Ccp-Rev
TULA.Temp-Water.Inst.1Hour.0.Ccp-Rev
TULA.Conc-DO.Inst.1Hour.0.Ccp-Rev
TULA.Volt-Battery Load.Inst.1Hour.0.Ccp-Rev

                            

All information presented herein is the property of the government of the United States of America and may be revised or deleted at any time without prior notice. Dissemination of this information without the expressed written consent of the Public Affairs Office, Tulsa District U.S. Army Corps of Engineers is strictly prohibited. These data are gathered electronically and, as presented, have NOT undergone any form of quality control. These data are NOT guaranteed to be valid or correct.